Forside
METAR-TAF:

METAR-TAF

Lufthavne :

Lambert-St Louis International Airport

St. Louis, Missouri, USA

Breddekreds: 38-45-09N, længdekreds: 090-22-25W, højde: 184 m

Aktuelle vejr

Denne rapport blev lavet for 54 minutter siden, kl. 21:51 UTC
Vind 4 kt fra nordnordvest
Temperatur 8°C
Fugtighed 66%
Tryk 1019 hPa
Sigt: 16.1 km
skyfri

METAR: KSTL 162151Z 34004KT 10SM CLR 08/02 A3010 RMK AO2 SLP198 T00830017

Tid: 16:45 (22:45 UTC)

Vejrudsigter

Denne rapport blev lavet for 1 time og 40 minutter siden, kl. 21:05 UTC
Foreløbig gælder fra 16 på 21 UTC til 17 på 24 UTC
Vind 4 kt fra varierende retninger
Sigt: 10 km
skyfri
Fra 17 på 0900 UTC
Vind 3 kt fra varierende retninger
Sigt: 10 km
Brudte skyer i en højde af 25000 ft
Fra 17 på 1600 UTC
Vind 4 kt fra varierende retninger
Sigt: 10 km
Overskyet i en højde af 3500 ft
Fra 17 på 1800 UTC
Vind 6 kt fra nordnordvest
Sigt: 10 km
Overskyet i en højde af 1800 ft

TAF: KSTL 162105Z 1621/1724 VRB04KT P6SM SKC FM170900 VRB03KT P6SM BKN250 FM171600 VRB04KT P6SM OVC035 FM171800 33006KT P6SM OVC018

Vejrobservationer og prognoser fra mere end 4000 lufthavne (METAR og TAF).

De gule og røde prikker repræsenterer de meteorologiske stationer.

Flyt musen over at se navnet på stationen.

Så klik over at se vejr observationer og prognoser.

At skifte det kort: Klik på de grønne knapper med et sort kors for at zoome ind; på den grønne knap med en bindestreg for at zoome ud; eller på de grønne pile for tilstødende kort.


METAR-TAF: